sensor_id;sensor_type;location;lat;lon;timestamp;P1;durP1;ratioP1;P2;durP2;ratioP2
44110;SDS011;29774;52.664;5.074;2022-09-09T00:01:49;0.90;;;0.60;;
44110;SDS011;29774;52.664;5.074;2022-09-09T00:09:28;1.83;;;0.90;;
44110;SDS011;29774;52.664;5.074;2022-09-09T00:12:02;1.10;;;0.77;;
44110;SDS011;29774;52.664;5.074;2022-09-09T00:14:52;2.42;;;2.22;;
44110;SDS011;29774;52.664;5.074;2022-09-09T00:19:58;2.08;;;1.10;;
44110;SDS011;29774;52.664;5.074;2022-09-09T00:22:28;3.15;;;1.35;;
44110;SDS011;29774;52.664;5.074;2022-09-09T00:25:02;1.67;;;0.85;;
44110;SDS011;29774;52.664;5.074;2022-09-09T00:27:48;1.58;;;0.90;;
44110;SDS011;29774;52.664;5.074;2022-09-09T00:30:19;1.65;;;0.90;;
44110;SDS011;29774;52.664;5.074;2022-09-09T00:32:49;1.10;;;0.60;;
44110;SDS011;29774;52.664;5.074;2022-09-09T00:35:23;1.75;;;1.63;;
44110;SDS011;29774;52.664;5.074;2022-09-09T00:37:54;1.60;;;1.00;;
44110;SDS011;29774;52.664;5.074;2022-09-09T00:40:35;2.10;;;0.82;;
44110;SDS011;29774;52.664;5.074;2022-09-09T00:43:16;0.95;;;0.60;;
44110;SDS011;29774;52.664;5.074;2022-09-09T00:48:19;3.10;;;0.77;;
44110;SDS011;29774;52.664;5.074;2022-09-09T00:50:53;1.77;;;0.73;;
44110;SDS011;29774;52.664;5.074;2022-09-09T00:53:39;2.30;;;0.68;;
44110;SDS011;29774;52.664;5.074;2022-09-09T00:56:26;2.78;;;0.95;;
44110;SDS011;29774;52.664;5.074;2022-09-09T00:59:07;0.75;;;0.50;;
44110;SDS011;29774;52.664;5.074;2022-09-09T01:01:36;1.02;;;0.50;;
44110;SDS011;29774;52.664;5.074;2022-09-09T01:04:04;2.15;;;0.73;;
44110;SDS011;29774;52.664;5.074;2022-09-09T01:06:41;1.48;;;0.73;;
44110;SDS011;29774;52.664;5.074;2022-09-09T01:17:21;0.75;;;0.55;;
44110;SDS011;29774;52.664;5.074;2022-09-09T01:28:01;2.55;;;0.70;;
44110;SDS011;29774;52.664;5.074;2022-09-09T01:30:29;0.50;;;0.47;;
44110;SDS011;29774;52.664;5.074;2022-09-09T01:32:57;1.98;;;0.73;;
44110;SDS011;29774;52.664;5.074;2022-09-09T01:38:07;1.33;;;0.70;;
44110;SDS011;29774;52.664;5.074;2022-09-09T01:40:33;1.33;;;0.60;;
44110;SDS011;29774;52.664;5.074;2022-09-09T01:42:59;1.50;;;0.70;;
44110;SDS011;29774;52.664;5.074;2022-09-09T01:45:25;1.67;;;0.60;;
44110;SDS011;29774;52.664;5.074;2022-09-09T01:47:54;1.88;;;1.00;;
44110;SDS011;29774;52.664;5.074;2022-09-09T01:50:21;1.67;;;0.90;;
44110;SDS011;29774;52.664;5.074;2022-09-09T01:52:48;1.55;;;0.80;;
44110;SDS011;29774;52.664;5.074;2022-09-09T01:55:18;1.75;;;0.88;;
44110;SDS011;29774;52.664;5.074;2022-09-09T01:58:16;3.47;;;1.95;;
44110;SDS011;29774;52.664;5.074;2022-09-09T02:01:05;2.88;;;0.90;;
44110;SDS011;29774;52.664;5.074;2022-09-09T02:03:47;1.70;;;0.70;;
44110;SDS011;29774;52.664;5.074;2022-09-09T02:08:56;1.15;;;0.90;;
44110;SDS011;29774;52.664;5.074;2022-09-09T02:11:25;2.50;;;1.13;;
44110;SDS011;29774;52.664;5.074;2022-09-09T02:13:53;0.80;;;0.70;;
44110;SDS011;29774;52.664;5.074;2022-09-09T02:16:26;1.50;;;0.90;;
44110;SDS011;29774;52.664;5.074;2022-09-09T02:19:03;2.17;;;1.23;;
44110;SDS011;29774;52.664;5.074;2022-09-09T02:21:37;2.10;;;1.45;;
44110;SDS011;29774;52.664;5.074;2022-09-09T02:24:06;2.85;;;1.27;;
44110;SDS011;29774;52.664;5.074;2022-09-09T02:26:35;2.58;;;1.30;;
44110;SDS011;29774;52.664;5.074;2022-09-09T02:29:05;3.28;;;1.15;;
44110;SDS011;29774;52.664;5.074;2022-09-09T02:31:37;2.75;;;1.42;;
44110;SDS011;29774;52.664;5.074;2022-09-09T02:34:04;1.65;;;1.20;;
44110;SDS011;29774;52.664;5.074;2022-09-09T02:36:33;2.15;;;1.40;;
44110;SDS011;29774;52.664;5.074;2022-09-09T02:39:01;4.10;;;1.85;;
44110;SDS011;29774;52.664;5.074;2022-09-09T02:41:32;1.35;;;1.20;;
44110;SDS011;29774;52.664;5.074;2022-09-09T02:44:00;1.38;;;1.25;;
44110;SDS011;29774;52.664;5.074;2022-09-09T02:46:36;3.08;;;2.42;;
44110;SDS011;29774;52.664;5.074;2022-09-09T02:49:10;3.92;;;1.92;;
44110;SDS011;29774;52.664;5.074;2022-09-09T02:57:00;2.35;;;1.98;;
44110;SDS011;29774;52.664;5.074;2022-09-09T02:59:30;3.65;;;2.38;;
44110;SDS011;29774;52.664;5.074;2022-09-09T03:01:56;3.05;;;2.08;;
44110;SDS011;29774;52.664;5.074;2022-09-09T03:04:21;2.97;;;1.73;;
44110;SDS011;29774;52.664;5.074;2022-09-09T03:06:49;5.47;;;4.07;;
44110;SDS011;29774;52.664;5.074;2022-09-09T03:09:15;2.30;;;1.83;;
44110;SDS011;29774;52.664;5.074;2022-09-09T03:11:41;3.20;;;2.90;;
44110;SDS011;29774;52.664;5.074;2022-09-09T03:14:06;2.45;;;1.42;;
44110;SDS011;29774;52.664;5.074;2022-09-09T03:16:32;4.03;;;2.05;;
44110;SDS011;29774;52.664;5.074;2022-09-09T03:18:59;3.08;;;2.78;;
44110;SDS011;29774;52.664;5.074;2022-09-09T03:21:25;2.28;;;1.83;;
44110;SDS011;29774;52.664;5.074;2022-09-09T03:23:51;4.85;;;2.83;;
44110;SDS011;29774;52.664;5.074;2022-09-09T03:26:17;3.17;;;1.77;;
44110;SDS011;29774;52.664;5.074;2022-09-09T03:28:42;2.83;;;2.55;;
44110;SDS011;29774;52.664;5.074;2022-09-09T03:31:09;2.85;;;2.05;;
44110;SDS011;29774;52.664;5.074;2022-09-09T03:33:36;3.85;;;2.92;;
44110;SDS011;29774;52.664;5.074;2022-09-09T03:36:02;4.28;;;1.98;;
44110;SDS011;29774;52.664;5.074;2022-09-09T03:38:28;5.22;;;3.88;;
44110;SDS011;29774;52.664;5.074;2022-09-09T03:40:54;4.18;;;2.47;;
44110;SDS011;29774;52.664;5.074;2022-09-09T03:43:22;2.70;;;1.77;;
44110;SDS011;29774;52.664;5.074;2022-09-09T03:45:49;3.58;;;1.75;;
44110;SDS011;29774;52.664;5.074;2022-09-09T03:48:15;2.58;;;1.98;;
44110;SDS011;29774;52.664;5.074;2022-09-09T03:50:48;4.28;;;2.15;;
44110;SDS011;29774;52.664;5.074;2022-09-09T03:53:16;2.97;;;1.55;;
44110;SDS011;29774;52.664;5.074;2022-09-09T03:55:47;2.28;;;1.30;;
44110;SDS011;29774;52.664;5.074;2022-09-09T03:58:15;4.32;;;2.45;;
44110;SDS011;29774;52.664;5.074;2022-09-09T04:00:43;2.40;;;1.23;;
44110;SDS011;29774;52.664;5.074;2022-09-09T04:03:18;2.85;;;2.13;;
44110;SDS011;29774;52.664;5.074;2022-09-09T04:05:43;3.60;;;2.63;;
44110;SDS011;29774;52.664;5.074;2022-09-09T04:08:09;3.53;;;2.22;;
44110;SDS011;29774;52.664;5.074;2022-09-09T04:10:36;1.35;;;1.20;;
44110;SDS011;29774;52.664;5.074;2022-09-09T04:13:02;2.35;;;1.50;;
44110;SDS011;29774;52.664;5.074;2022-09-09T04:15:29;3.55;;;1.60;;
44110;SDS011;29774;52.664;5.074;2022-09-09T04:17:55;2.55;;;1.40;;
44110;SDS011;29774;52.664;5.074;2022-09-09T04:20:20;2.22;;;1.38;;
44110;SDS011;29774;52.664;5.074;2022-09-09T04:22:47;1.98;;;1.65;;
44110;SDS011;29774;52.664;5.074;2022-09-09T04:25:12;2.25;;;1.00;;
44110;SDS011;29774;52.664;5.074;2022-09-09T04:27:38;4.15;;;2.55;;
44110;SDS011;29774;52.664;5.074;2022-09-09T04:30:04;2.17;;;1.70;;
44110;SDS011;29774;52.664;5.074;2022-09-09T04:32:31;6.60;;;2.28;;
44110;SDS011;29774;52.664;5.074;2022-09-09T04:34:58;2.05;;;1.45;;
44110;SDS011;29774;52.664;5.074;2022-09-09T04:37:23;3.38;;;1.40;;
44110;SDS011;29774;52.664;5.074;2022-09-09T04:39:50;2.63;;;1.65;;
44110;SDS011;29774;52.664;5.074;2022-09-09T04:42:15;4.68;;;2.55;;
44110;SDS011;29774;52.664;5.074;2022-09-09T04:44:42;3.72;;;2.28;;
44110;SDS011;29774;52.664;5.074;2022-09-09T04:47:09;3.88;;;1.85;;
44110;SDS011;29774;52.664;5.074;2022-09-09T04:49:35;2.38;;;1.60;;
44110;SDS011;29774;52.664;5.074;2022-09-09T04:52:01;3.60;;;1.08;;
44110;SDS011;29774;52.664;5.074;2022-09-09T04:54:28;4.65;;;1.90;;
44110;SDS011;29774;52.664;5.074;2022-09-09T04:56:54;3.25;;;1.63;;
44110;SDS011;29774;52.664;5.074;2022-09-09T04:59:20;4.78;;;2.65;;
44110;SDS011;29774;52.664;5.074;2022-09-09T05:01:46;2.25;;;1.25;;
44110;SDS011;29774;52.664;5.074;2022-09-09T05:04:13;2.15;;;1.20;;
44110;SDS011;29774;52.664;5.074;2022-09-09T05:06:42;4.88;;;2.22;;
44110;SDS011;29774;52.664;5.074;2022-09-09T05:09:07;3.10;;;2.80;;
44110;SDS011;29774;52.664;5.074;2022-09-09T05:11:33;2.95;;;1.40;;
44110;SDS011;29774;52.664;5.074;2022-09-09T05:14:01;1.42;;;1.15;;
44110;SDS011;29774;52.664;5.074;2022-09-09T05:16:28;2.60;;;0.80;;
44110;SDS011;29774;52.664;5.074;2022-09-09T05:18:55;1.67;;;1.50;;
44110;SDS011;29774;52.664;5.074;2022-09-09T05:21:22;2.45;;;1.40;;
44110;SDS011;29774;52.664;5.074;2022-09-09T05:23:50;2.92;;;1.27;;
44110;SDS011;29774;52.664;5.074;2022-09-09T05:26:16;2.55;;;1.55;;
44110;SDS011;29774;52.664;5.074;2022-09-09T05:28:44;2.92;;;1.38;;
44110;SDS011;29774;52.664;5.074;2022-09-09T05:31:11;2.85;;;1.20;;
44110;SDS011;29774;52.664;5.074;2022-09-09T05:33:38;1.67;;;1.20;;
44110;SDS011;29774;52.664;5.074;2022-09-09T05:36:06;2.03;;;1.25;;
44110;SDS011;29774;52.664;5.074;2022-09-09T05:38:34;1.42;;;0.90;;
44110;SDS011;29774;52.664;5.074;2022-09-09T05:41:01;2.90;;;0.90;;
44110;SDS011;29774;52.664;5.074;2022-09-09T05:43:27;2.15;;;1.02;;
44110;SDS011;29774;52.664;5.074;2022-09-09T05:46:01;4.30;;;1.50;;
44110;SDS011;29774;52.664;5.074;2022-09-09T05:48:30;2.30;;;1.55;;
44110;SDS011;29774;52.664;5.074;2022-09-09T05:50:56;1.52;;;0.80;;
44110;SDS011;29774;52.664;5.074;2022-09-09T05:53:22;1.33;;;0.70;;
44110;SDS011;29774;52.664;5.074;2022-09-09T05:55:48;1.75;;;0.90;;
44110;SDS011;29774;52.664;5.074;2022-09-09T05:58:14;2.92;;;1.10;;
44110;SDS011;29774;52.664;5.074;2022-09-09T06:00:41;2.00;;;1.15;;
44110;SDS011;29774;52.664;5.074;2022-09-09T06:03:10;2.35;;;1.00;;
44110;SDS011;29774;52.664;5.074;2022-09-09T06:05:36;2.30;;;0.60;;
44110;SDS011;29774;52.664;5.074;2022-09-09T06:08:02;1.98;;;0.82;;
44110;SDS011;29774;52.664;5.074;2022-09-09T06:10:28;0.85;;;0.60;;
44110;SDS011;29774;52.664;5.074;2022-09-09T06:12:54;1.85;;;0.60;;
44110;SDS011;29774;52.664;5.074;2022-09-09T06:15:19;2.47;;;0.70;;
44110;SDS011;29774;52.664;5.074;2022-09-09T06:17:45;2.92;;;1.10;;
44110;SDS011;29774;52.664;5.074;2022-09-09T06:20:10;6.28;;;1.35;;
44110;SDS011;29774;52.664;5.074;2022-09-09T06:22:39;1.73;;;0.90;;
44110;SDS011;29774;52.664;5.074;2022-09-09T06:25:06;1.45;;;0.80;;
44110;SDS011;29774;52.664;5.074;2022-09-09T06:27:32;3.63;;;1.05;;
44110;SDS011;29774;52.664;5.074;2022-09-09T06:29:58;1.48;;;0.98;;
44110;SDS011;29774;52.664;5.074;2022-09-09T06:32:23;4.40;;;1.40;;
44110;SDS011;29774;52.664;5.074;2022-09-09T06:34:49;4.38;;;1.42;;
44110;SDS011;29774;52.664;5.074;2022-09-09T06:37:15;2.42;;;1.13;;
44110;SDS011;29774;52.664;5.074;2022-09-09T06:39:41;1.48;;;0.88;;
44110;SDS011;29774;52.664;5.074;2022-09-09T06:42:06;2.25;;;1.08;;
44110;SDS011;29774;52.664;5.074;2022-09-09T06:44:34;0.90;;;0.80;;
44110;SDS011;29774;52.664;5.074;2022-09-09T06:46:59;4.78;;;1.27;;
44110;SDS011;29774;52.664;5.074;2022-09-09T06:49:25;4.78;;;1.10;;
44110;SDS011;29774;52.664;5.074;2022-09-09T06:51:50;2.25;;;0.70;;
44110;SDS011;29774;52.664;5.074;2022-09-09T06:54:17;2.05;;;0.90;;
44110;SDS011;29774;52.664;5.074;2022-09-09T06:56:43;1.73;;;0.70;;
44110;SDS011;29774;52.664;5.074;2022-09-09T06:59:10;1.90;;;1.00;;
44110;SDS011;29774;52.664;5.074;2022-09-09T07:01:37;2.40;;;0.90;;
44110;SDS011;29774;52.664;5.074;2022-09-09T07:04:08;2.35;;;0.90;;
44110;SDS011;29774;52.664;5.074;2022-09-09T07:06:40;2.90;;;1.20;;
44110;SDS011;29774;52.664;5.074;2022-09-09T07:09:11;2.40;;;1.00;;
44110;SDS011;29774;52.664;5.074;2022-09-09T07:11:39;4.00;;;1.30;;
44110;SDS011;29774;52.664;5.074;2022-09-09T07:14:07;2.38;;;0.90;;
44110;SDS011;29774;52.664;5.074;2022-09-09T07:16:33;3.50;;;1.10;;
44110;SDS011;29774;52.664;5.074;2022-09-09T07:19:02;2.58;;;0.90;;
44110;SDS011;29774;52.664;5.074;2022-09-09T07:21:29;3.25;;;1.20;;
44110;SDS011;29774;52.664;5.074;2022-09-09T07:23:55;4.07;;;0.90;;
44110;SDS011;29774;52.664;5.074;2022-09-09T07:26:25;3.03;;;1.15;;
44110;SDS011;29774;52.664;5.074;2022-09-09T07:28:53;2.38;;;0.80;;
44110;SDS011;29774;52.664;5.074;2022-09-09T07:31:22;3.70;;;1.42;;
44110;SDS011;29774;52.664;5.074;2022-09-09T07:33:49;2.00;;;0.60;;
44110;SDS011;29774;52.664;5.074;2022-09-09T07:36:24;1.75;;;0.80;;
44110;SDS011;29774;52.664;5.074;2022-09-09T07:38:52;2.15;;;0.90;;
44110;SDS011;29774;52.664;5.074;2022-09-09T07:41:21;3.10;;;0.95;;
44110;SDS011;29774;52.664;5.074;2022-09-09T07:43:59;3.55;;;1.05;;
44110;SDS011;29774;52.664;5.074;2022-09-09T07:46:28;1.92;;;1.05;;
44110;SDS011;29774;52.664;5.074;2022-09-09T07:48:54;1.55;;;0.80;;
44110;SDS011;29774;52.664;5.074;2022-09-09T07:51:23;1.45;;;0.70;;
44110;SDS011;29774;52.664;5.074;2022-09-09T07:53:54;3.13;;;1.52;;
44110;SDS011;29774;52.664;5.074;2022-09-09T07:56:22;1.90;;;0.68;;
44110;SDS011;29774;52.664;5.074;2022-09-09T07:58:49;1.10;;;0.75;;
44110;SDS011;29774;52.664;5.074;2022-09-09T08:04:07;2.15;;;0.98;;
44110;SDS011;29774;52.664;5.074;2022-09-09T08:06:35;1.33;;;0.88;;
44110;SDS011;29774;52.664;5.074;2022-09-09T08:09:02;2.90;;;0.80;;
44110;SDS011;29774;52.664;5.074;2022-09-09T08:11:29;2.25;;;0.90;;
44110;SDS011;29774;52.664;5.074;2022-09-09T08:13:55;1.85;;;0.90;;
44110;SDS011;29774;52.664;5.074;2022-09-09T08:16:23;1.65;;;1.05;;
44110;SDS011;29774;52.664;5.074;2022-09-09T08:18:53;3.47;;;1.50;;
44110;SDS011;29774;52.664;5.074;2022-09-09T08:21:21;3.72;;;1.70;;
44110;SDS011;29774;52.664;5.074;2022-09-09T08:23:49;1.13;;;0.75;;
44110;SDS011;29774;52.664;5.074;2022-09-09T08:26:18;1.27;;;1.05;;
44110;SDS011;29774;52.664;5.074;2022-09-09T08:28:47;1.60;;;0.93;;
44110;SDS011;29774;52.664;5.074;2022-09-09T08:31:16;1.50;;;1.08;;
44110;SDS011;29774;52.664;5.074;2022-09-09T08:33:46;2.22;;;1.08;;
44110;SDS011;29774;52.664;5.074;2022-09-09T08:36:16;1.65;;;1.05;;
44110;SDS011;29774;52.664;5.074;2022-09-09T08:38:50;2.47;;;1.30;;
44110;SDS011;29774;52.664;5.074;2022-09-09T08:43:50;3.10;;;1.38;;
44110;SDS011;29774;52.664;5.074;2022-09-09T08:46:34;1.88;;;1.10;;
44110;SDS011;29774;52.664;5.074;2022-09-09T08:49:34;3.90;;;1.70;;
44110;SDS011;29774;52.664;5.074;2022-09-09T08:55:19;4.38;;;1.55;;
44110;SDS011;29774;52.664;5.074;2022-09-09T08:57:46;2.17;;;1.38;;
44110;SDS011;29774;52.664;5.074;2022-09-09T09:00:18;5.00;;;1.52;;
44110;SDS011;29774;52.664;5.074;2022-09-09T09:11:02;3.45;;;1.17;;
44110;SDS011;29774;52.664;5.074;2022-09-09T09:13:34;2.50;;;1.15;;
44110;SDS011;29774;52.664;5.074;2022-09-09T09:16:13;5.05;;;1.40;;
44110;SDS011;29774;52.664;5.074;2022-09-09T09:19:00;2.28;;;1.30;;
44110;SDS011;29774;52.664;5.074;2022-09-09T09:24:01;3.10;;;1.20;;
44110;SDS011;29774;52.664;5.074;2022-09-09T09:26:35;2.78;;;1.52;;
44110;SDS011;29774;52.664;5.074;2022-09-09T09:29:03;2.03;;;1.05;;
44110;SDS011;29774;52.664;5.074;2022-09-09T09:31:41;2.03;;;1.10;;
44110;SDS011;29774;52.664;5.074;2022-09-09T09:34:12;2.90;;;1.55;;
44110;SDS011;29774;52.664;5.074;2022-09-09T09:36:42;3.47;;;1.45;;
44110;SDS011;29774;52.664;5.074;2022-09-09T09:39:27;5.97;;;1.88;;
44110;SDS011;29774;52.664;5.074;2022-09-09T09:41:54;2.25;;;0.90;;
44110;SDS011;29774;52.664;5.074;2022-09-09T09:46:50;3.63;;;1.38;;
44110;SDS011;29774;52.664;5.074;2022-09-09T09:49:15;1.30;;;1.20;;
44110;SDS011;29774;52.664;5.074;2022-09-09T09:51:42;3.78;;;1.75;;
44110;SDS011;29774;52.664;5.074;2022-09-09T09:54:09;1.33;;;0.90;;
44110;SDS011;29774;52.664;5.074;2022-09-09T09:56:52;5.70;;;1.73;;
44110;SDS011;29774;52.664;5.074;2022-09-09T09:59:33;3.83;;;1.73;;
44110;SDS011;29774;52.664;5.074;2022-09-09T10:04:39;4.38;;;1.92;;
44110;SDS011;29774;52.664;5.074;2022-09-09T10:07:12;4.13;;;1.60;;
44110;SDS011;29774;52.664;5.074;2022-09-09T10:09:43;3.72;;;1.70;;
44110;SDS011;29774;52.664;5.074;2022-09-09T10:12:16;6.93;;;2.25;;
44110;SDS011;29774;52.664;5.074;2022-09-09T10:17:29;4.80;;;1.58;;
44110;SDS011;29774;52.664;5.074;2022-09-09T10:23:14;3.97;;;1.60;;
44110;SDS011;29774;52.664;5.074;2022-09-09T10:31:45;2.67;;;1.60;;
44110;SDS011;29774;52.664;5.074;2022-09-09T10:34:44;2.50;;;1.70;;
44110;SDS011;29774;52.664;5.074;2022-09-09T10:43:02;3.03;;;1.40;;
44110;SDS011;29774;52.664;5.074;2022-09-09T10:46:05;3.75;;;1.20;;
44110;SDS011;29774;52.664;5.074;2022-09-09T10:57:02;6.97;;;2.13;;
44110;SDS011;29774;52.664;5.074;2022-09-09T10:59:40;5.63;;;1.85;;
44110;SDS011;29774;52.664;5.074;2022-09-09T11:02:15;4.07;;;1.50;;
44110;SDS011;29774;52.664;5.074;2022-09-09T11:04:52;4.43;;;1.27;;
44110;SDS011;29774;52.664;5.074;2022-09-09T11:07:34;3.83;;;1.85;;
44110;SDS011;29774;52.664;5.074;2022-09-09T11:10:33;4.38;;;1.70;;
44110;SDS011;29774;52.664;5.074;2022-09-09T11:13:10;4.57;;;1.80;;
44110;SDS011;29774;52.664;5.074;2022-09-09T11:15:49;5.28;;;1.65;;
44110;SDS011;29774;52.664;5.074;2022-09-09T11:18:19;2.90;;;1.45;;
44110;SDS011;29774;52.664;5.074;2022-09-09T11:20:48;4.80;;;1.42;;
44110;SDS011;29774;52.664;5.074;2022-09-09T11:23:23;5.38;;;1.45;;
44110;SDS011;29774;52.664;5.074;2022-09-09T11:25:54;4.07;;;1.23;;
44110;SDS011;29774;52.664;5.074;2022-09-09T11:34:42;4.57;;;1.33;;
44110;SDS011;29774;52.664;5.074;2022-09-09T11:36:50;4.00;;;1.30;;
44110;SDS011;29774;52.664;5.074;2022-09-09T11:39:44;2.25;;;0.98;;
44110;SDS011;29774;52.664;5.074;2022-09-09T11:42:20;2.35;;;1.10;;
44110;SDS011;29774;52.664;5.074;2022-09-09T11:44:48;3.80;;;1.40;;
44110;SDS011;29774;52.664;5.074;2022-09-09T11:47:28;4.55;;;1.17;;
44110;SDS011;29774;52.664;5.074;2022-09-09T11:55:39;2.92;;;1.40;;
44110;SDS011;29774;52.664;5.074;2022-09-09T12:03:05;3.67;;;1.10;;
44110;SDS011;29774;52.664;5.074;2022-09-09T12:05:38;2.83;;;1.20;;
44110;SDS011;29774;52.664;5.074;2022-09-09T12:08:09;2.88;;;1.05;;
44110;SDS011;29774;52.664;5.074;2022-09-09T12:10:38;1.98;;;0.82;;
44110;SDS011;29774;52.664;5.074;2022-09-09T12:13:09;4.68;;;1.05;;
44110;SDS011;29774;52.664;5.074;2022-09-09T12:15:56;2.60;;;1.02;;
44110;SDS011;29774;52.664;5.074;2022-09-09T12:20:52;3.80;;;1.00;;
44110;SDS011;29774;52.664;5.074;2022-09-09T12:23:48;7.10;;;1.08;;
44110;SDS011;29774;52.664;5.074;2022-09-09T12:29:38;2.25;;;0.80;;
44110;SDS011;29774;52.664;5.074;2022-09-09T12:32:16;4.38;;;1.27;;
44110;SDS011;29774;52.664;5.074;2022-09-09T12:34:53;1.20;;;0.60;;
44110;SDS011;29774;52.664;5.074;2022-09-09T12:42:44;1.92;;;0.88;;
44110;SDS011;29774;52.664;5.074;2022-09-09T12:45:15;3.60;;;1.10;;
44110;SDS011;29774;52.664;5.074;2022-09-09T12:47:51;2.33;;;0.80;;
44110;SDS011;29774;52.664;5.074;2022-09-09T12:50:26;1.50;;;0.85;;
44110;SDS011;29774;52.664;5.074;2022-09-09T12:52:58;2.08;;;0.75;;
44110;SDS011;29774;52.664;5.074;2022-09-09T12:55:35;1.17;;;0.68;;
44110;SDS011;29774;52.664;5.074;2022-09-09T12:58:02;3.28;;;0.90;;
44110;SDS011;29774;52.664;5.074;2022-09-09T13:00:34;3.28;;;0.82;;
44110;SDS011;29774;52.664;5.074;2022-09-09T13:03:00;0.88;;;0.60;;
44110;SDS011;29774;52.664;5.074;2022-09-09T13:05:31;1.48;;;0.77;;
44110;SDS011;29774;52.664;5.074;2022-09-09T13:08:11;1.27;;;0.63;;
44110;SDS011;29774;52.664;5.074;2022-09-09T13:10:39;1.52;;;0.85;;
44110;SDS011;29774;52.664;5.074;2022-09-09T13:13:15;2.08;;;0.70;;
44110;SDS011;29774;52.664;5.074;2022-09-09T13:16:03;2.72;;;0.90;;
44110;SDS011;29774;52.664;5.074;2022-09-09T13:18:33;1.23;;;0.70;;
44110;SDS011;29774;52.664;5.074;2022-09-09T13:21:00;3.55;;;0.80;;
44110;SDS011;29774;52.664;5.074;2022-09-09T13:23:35;1.77;;;0.65;;
44110;SDS011;29774;52.664;5.074;2022-09-09T13:26:06;1.77;;;0.60;;
44110;SDS011;29774;52.664;5.074;2022-09-09T13:28:51;3.42;;;0.80;;
44110;SDS011;29774;52.664;5.074;2022-09-09T13:31:22;1.95;;;0.60;;
44110;SDS011;29774;52.664;5.074;2022-09-09T13:33:53;1.30;;;0.90;;
44110;SDS011;29774;52.664;5.074;2022-09-09T13:36:27;2.45;;;0.80;;
44110;SDS011;29774;52.664;5.074;2022-09-09T13:38:57;0.95;;;0.63;;
44110;SDS011;29774;52.664;5.074;2022-09-09T13:41:34;2.10;;;0.55;;
44110;SDS011;29774;52.664;5.074;2022-09-09T13:44:01;1.88;;;0.93;;
44110;SDS011;29774;52.664;5.074;2022-09-09T13:46:35;1.00;;;0.43;;
44110;SDS011;29774;52.664;5.074;2022-09-09T13:51:43;1.70;;;0.70;;
44110;SDS011;29774;52.664;5.074;2022-09-09T13:54:12;0.80;;;0.80;;
44110;SDS011;29774;52.664;5.074;2022-09-09T13:56:39;0.95;;;0.65;;
44110;SDS011;29774;52.664;5.074;2022-09-09T13:59:09;1.13;;;0.73;;
44110;SDS011;29774;52.664;5.074;2022-09-09T14:01:39;1.83;;;0.63;;
44110;SDS011;29774;52.664;5.074;2022-09-09T14:04:06;1.67;;;0.70;;
44110;SDS011;29774;52.664;5.074;2022-09-09T14:06:34;1.80;;;0.70;;
44110;SDS011;29774;52.664;5.074;2022-09-09T14:09:03;1.30;;;0.55;;
44110;SDS011;29774;52.664;5.074;2022-09-09T14:11:30;2.03;;;0.63;;
44110;SDS011;29774;52.664;5.074;2022-09-09T14:13:55;1.00;;;0.80;;
44110;SDS011;29774;52.664;5.074;2022-09-09T14:16:21;0.70;;;0.52;;
44110;SDS011;29774;52.664;5.074;2022-09-09T14:18:47;0.73;;;0.60;;
44110;SDS011;29774;52.664;5.074;2022-09-09T14:21:13;0.82;;;0.50;;
44110;SDS011;29774;52.664;5.074;2022-09-09T14:23:40;0.43;;;0.43;;
44110;SDS011;29774;52.664;5.074;2022-09-09T14:26:06;2.03;;;0.85;;
44110;SDS011;29774;52.664;5.074;2022-09-09T14:28:32;1.33;;;0.70;;
44110;SDS011;29774;52.664;5.074;2022-09-09T14:30:59;2.15;;;0.70;;
44110;SDS011;29774;52.664;5.074;2022-09-09T14:33:26;1.67;;;0.65;;
44110;SDS011;29774;52.664;5.074;2022-09-09T14:35:59;1.70;;;0.60;;
44110;SDS011;29774;52.664;5.074;2022-09-09T14:38:29;0.57;;;0.52;;
44110;SDS011;29774;52.664;5.074;2022-09-09T14:40:56;2.08;;;0.70;;
44110;SDS011;29774;52.664;5.074;2022-09-09T14:43:23;1.35;;;0.57;;
44110;SDS011;29774;52.664;5.074;2022-09-09T14:45:49;1.00;;;0.60;;
44110;SDS011;29774;52.664;5.074;2022-09-09T14:48:16;1.00;;;0.45;;
44110;SDS011;29774;52.664;5.074;2022-09-09T14:50:42;1.02;;;0.68;;
44110;SDS011;29774;52.664;5.074;2022-09-09T14:53:08;0.70;;;0.60;;
44110;SDS011;29774;52.664;5.074;2022-09-09T14:55:35;1.10;;;0.60;;
44110;SDS011;29774;52.664;5.074;2022-09-09T14:58:01;1.20;;;0.57;;
44110;SDS011;29774;52.664;5.074;2022-09-09T15:00:27;2.05;;;0.40;;
44110;SDS011;29774;52.664;5.074;2022-09-09T15:02:53;1.67;;;0.63;;
44110;SDS011;29774;52.664;5.074;2022-09-09T15:05:19;1.67;;;0.60;;
44110;SDS011;29774;52.664;5.074;2022-09-09T15:07:45;2.25;;;0.68;;
44110;SDS011;29774;52.664;5.074;2022-09-09T15:10:13;1.13;;;0.85;;
44110;SDS011;29774;52.664;5.074;2022-09-09T15:12:39;0.95;;;0.55;;
44110;SDS011;29774;52.664;5.074;2022-09-09T15:15:04;1.50;;;0.60;;
44110;SDS011;29774;52.664;5.074;2022-09-09T15:17:30;2.17;;;0.70;;
44110;SDS011;29774;52.664;5.074;2022-09-09T15:19:56;2.15;;;1.10;;
44110;SDS011;29774;52.664;5.074;2022-09-09T15:22:22;1.23;;;0.70;;
44110;SDS011;29774;52.664;5.074;2022-09-09T15:24:49;1.00;;;0.68;;
44110;SDS011;29774;52.664;5.074;2022-09-09T15:27:15;0.88;;;0.45;;
44110;SDS011;29774;52.664;5.074;2022-09-09T15:29:41;0.98;;;0.40;;
44110;SDS011;29774;52.664;5.074;2022-09-09T15:32:06;1.05;;;0.50;;
44110;SDS011;29774;52.664;5.074;2022-09-09T15:34:33;1.17;;;0.63;;
44110;SDS011;29774;52.664;5.074;2022-09-09T15:36:58;1.33;;;0.80;;
44110;SDS011;29774;52.664;5.074;2022-09-09T15:39:27;1.13;;;0.43;;
44110;SDS011;29774;52.664;5.074;2022-09-09T15:41:52;0.65;;;0.50;;
44110;SDS011;29774;52.664;5.074;2022-09-09T15:44:18;1.10;;;0.50;;
44110;SDS011;29774;52.664;5.074;2022-09-09T15:46:45;0.90;;;0.50;;
44110;SDS011;29774;52.664;5.074;2022-09-09T15:49:18;0.68;;;0.30;;
44110;SDS011;29774;52.664;5.074;2022-09-09T15:51:47;1.55;;;0.50;;
44110;SDS011;29774;52.664;5.074;2022-09-09T15:54:28;0.55;;;0.50;;
44110;SDS011;29774;52.664;5.074;2022-09-09T15:56:59;0.82;;;0.60;;
44110;SDS011;29774;52.664;5.074;2022-09-09T15:59:26;0.70;;;0.43;;
44110;SDS011;29774;52.664;5.074;2022-09-09T16:01:54;1.60;;;0.40;;
44110;SDS011;29774;52.664;5.074;2022-09-09T16:04:20;1.25;;;0.75;;
44110;SDS011;29774;52.664;5.074;2022-09-09T16:06:53;1.38;;;0.70;;
44110;SDS011;29774;52.664;5.074;2022-09-09T16:09:29;1.90;;;0.55;;
44110;SDS011;29774;52.664;5.074;2022-09-09T16:11:56;0.85;;;0.40;;
44110;SDS011;29774;52.664;5.074;2022-09-09T16:14:23;1.38;;;0.70;;
44110;SDS011;29774;52.664;5.074;2022-09-09T16:16:50;1.13;;;0.63;;
44110;SDS011;29774;52.664;5.074;2022-09-09T16:19:17;1.80;;;0.70;;
44110;SDS011;29774;52.664;5.074;2022-09-09T16:21:43;0.43;;;0.40;;
44110;SDS011;29774;52.664;5.074;2022-09-09T16:24:12;1.00;;;0.60;;
44110;SDS011;29774;52.664;5.074;2022-09-09T16:26:41;1.23;;;0.40;;
44110;SDS011;29774;52.664;5.074;2022-09-09T16:29:10;0.82;;;0.52;;
44110;SDS011;29774;52.664;5.074;2022-09-09T16:31:36;2.50;;;0.45;;
44110;SDS011;29774;52.664;5.074;2022-09-09T16:34:02;0.68;;;0.60;;
44110;SDS011;29774;52.664;5.074;2022-09-09T16:36:29;1.10;;;0.60;;
44110;SDS011;29774;52.664;5.074;2022-09-09T16:38:57;0.85;;;0.55;;
44110;SDS011;29774;52.664;5.074;2022-09-09T16:41:24;1.05;;;0.60;;
44110;SDS011;29774;52.664;5.074;2022-09-09T16:43:56;1.23;;;0.70;;
44110;SDS011;29774;52.664;5.074;2022-09-09T16:46:27;1.00;;;0.60;;
44110;SDS011;29774;52.664;5.074;2022-09-09T16:48:55;1.73;;;0.68;;
44110;SDS011;29774;52.664;5.074;2022-09-09T16:51:24;2.92;;;0.65;;
44110;SDS011;29774;52.664;5.074;2022-09-09T16:53:52;0.63;;;0.43;;
44110;SDS011;29774;52.664;5.074;2022-09-09T16:56:19;1.15;;;0.68;;
44110;SDS011;29774;52.664;5.074;2022-09-09T16:58:50;1.88;;;0.65;;
44110;SDS011;29774;52.664;5.074;2022-09-09T17:01:19;0.80;;;0.50;;
44110;SDS011;29774;52.664;5.074;2022-09-09T17:03:44;1.33;;;0.60;;